Terminal Aerodrome Forecast
Issued by NWS Brownsville, TX

Home | Current Version | Previous Version | Text Only | Print | Product List | Glossary On
Versions: 1 2 3 4 5 6 7 8 9 10 11 12 13
000
FTUS44 KBRO 271124
TAFHRL
TAF
KHRL 271124Z 2712/2812 17009KT P6SM FEW020 SCT250
     FM271500 16012G17KT P6SM SCT035 BKN250
     FM271900 15019G26KT P6SM FEW040 BKN250
     FM280200 14013KT P6SM FEW030 SCT250
     FM280600 15008KT P6SM FEW020 SCT250=

USA.gov is the U.S. government's official web portal to all federal, state and local government web resources and services.